Decoded Metar for UHHH (KHABAROVSK in RUSSIA) (IATA:KHV) | Meteo·Mobile Aviation Weather
aviador You're here:

UHHH Decoded Metar

KHABAROVSK in RUSSIA
Report Time2019-07-23 07:00:00
UTC Time2019-07-23 07:33:12
Flight Rules vfr VFR
Wind250° at 14 kt
W.Decomp.*RWY 23: 12.0 kt HW 7.2 kt RCW
Visibility9999 m
Phenomena:N/A
Clouds:Few CB 033 Hf
Expected CloudBase > 3,600 ft AGL from Temp-Dew spread
CeilingNone
Temp28°C (ISA +13)
Dew Point19°C (58% RH)
Heat Index29.2°C
AAT26.2°C
QNH0998 hPa
Density Alt2,585 ft
Elevation236 ft
Report Wrong Elevation
Raw Report
METAR UHHH 230700Z 25007MPS 9999 FEW033CB 28/19 Q0998 R23L/090060 NOSIG
RMK QFE742/0989=

Extra information for UHHH:More info

Metar Taf Metar & Taf Last 4 Metars F.Rules Stats Wind Profile Meteogram Temp Stats Airport Information Weather charts Add Link Nearby VenuesMetar ALERT Operation Metar Decoded Social comments